Terminal Aerodrome Forecast
Issued by NWS Rapid City, SD

Home | Current Version | Previous Version | Text Only | Print | Product List | Glossary Off
Versions: 1 2 3 4 5 6 7 8 9 10 11 12 13 14 15 16 17 18 19 20 21 22 23 24 25 26 27 28 29 30 31

405
FTUS43 KUNR 220256 AAC
TAFRAP
TAF AMD
KRAP 220256Z 2203/2224 13014KT 4SM BR OVC003
     FM220600 15011KT 5SM BR OVC006
     FM221000 16010G20KT 5SM BR BKN015 WS020/18045KT
     FM221300 16011KT P6SM BKN045 WS020/19040KT
     FM221500 17013G23KT P6SM SCT090
     FM222200 25009KT P6SM SCT150
     FM222300 33009KT P6SM SCT200=

USA.gov is the U.S. government's official web portal to all federal, state and local government web resources and services.